createdAt,value
2018-02-02T00:01:24.431Z,3.20
2018-02-02T00:03:50.744Z,3.20
2018-02-02T00:06:17.036Z,3.10
2018-02-02T00:08:43.298Z,3.20
2018-02-02T00:11:09.607Z,3.20
2018-02-02T00:13:35.898Z,3.10
2018-02-02T00:16:02.213Z,2.90
2018-02-02T00:18:28.488Z,3.00
2018-02-02T00:20:55.074Z,3.00
2018-02-02T00:23:21.384Z,2.90
2018-02-02T00:25:48.381Z,2.80
2018-02-02T00:28:14.681Z,2.80
2018-02-02T00:30:40.965Z,2.90
2018-02-02T00:33:07.259Z,2.90
2018-02-02T00:35:33.527Z,3.00
2018-02-02T00:37:59.817Z,3.00
2018-02-02T00:40:26.121Z,3.00
2018-02-02T00:42:52.416Z,3.00
2018-02-02T00:45:18.697Z,3.10
2018-02-02T00:47:44.982Z,3.00
2018-02-02T00:50:12.021Z,3.00
2018-02-02T00:52:39.067Z,3.10
2018-02-02T00:55:05.408Z,3.00
2018-02-02T00:57:32.439Z,3.20
2018-02-02T00:59:58.719Z,3.20
2018-02-02T01:02:25.016Z,3.20
2018-02-02T01:04:52.052Z,3.10
2018-02-02T01:07:18.357Z,3.10
2018-02-02T01:09:44.652Z,3.20
2018-02-02T01:12:11.186Z,3.20
2018-02-02T01:14:37.510Z,3.30
2018-02-02T01:17:03.789Z,3.20
2018-02-02T01:19:30.077Z,3.20
2018-02-02T01:21:56.380Z,3.40
2018-02-02T01:24:23.446Z,3.30
2018-02-02T01:26:49.745Z,3.30
2018-02-02T01:29:16.784Z,3.20
2018-02-02T01:31:43.070Z,3.10
2018-02-02T01:34:09.373Z,3.10
2018-02-02T01:36:36.381Z,3.20
2018-02-02T01:39:02.706Z,3.20
2018-02-02T01:41:30.481Z,3.20
2018-02-02T01:43:56.770Z,3.20
2018-02-02T01:46:23.050Z,3.30
2018-02-02T01:48:49.329Z,3.30
2018-02-02T01:51:15.667Z,3.30
2018-02-02T01:53:41.978Z,3.40
2018-02-02T01:56:08.303Z,3.40
2018-02-02T01:58:34.585Z,3.30
2018-02-02T02:01:01.645Z,3.30
2018-02-02T02:03:28.671Z,3.30
2018-02-02T02:05:55.308Z,3.20
2018-02-02T02:08:22.373Z,3.30
2018-02-02T02:10:48.697Z,3.30
2018-02-02T02:13:16.487Z,3.20
2018-02-02T02:15:43.523Z,3.20
2018-02-02T02:18:10.554Z,3.30
2018-02-02T02:20:36.839Z,3.20
2018-02-02T02:23:03.108Z,3.20
2018-02-02T02:25:29.697Z,3.30
2018-02-02T02:27:55.966Z,3.30
2018-02-02T02:30:22.265Z,3.30
2018-02-02T02:32:48.552Z,3.30
2018-02-02T02:35:15.612Z,3.30
2018-02-02T02:37:42.626Z,3.30
2018-02-02T02:40:08.928Z,3.20
2018-02-02T02:42:35.209Z,3.30
2018-02-02T02:45:02.253Z,3.20
2018-02-02T02:47:29.291Z,3.20
2018-02-02T02:49:55.577Z,3.20
2018-02-02T02:52:21.909Z,3.20
2018-02-02T02:54:48.527Z,3.20
2018-02-02T02:57:14.861Z,3.20
2018-02-02T02:59:41.145Z,3.30
2018-02-02T03:02:07.446Z,3.30
2018-02-02T03:04:33.739Z,3.30
2018-02-02T03:07:00.088Z,3.30
2018-02-02T03:09:26.376Z,3.40
2018-02-02T03:11:53.426Z,3.30
2018-02-02T03:14:20.456Z,3.40
2018-02-02T03:16:46.830Z,3.30
2018-02-02T03:19:13.118Z,3.30
2018-02-02T03:21:40.180Z,3.30
2018-02-02T03:24:07.208Z,3.20
2018-02-02T03:26:33.513Z,3.20
2018-02-02T03:28:59.793Z,3.20
2018-02-02T03:31:26.832Z,3.30
2018-02-02T03:33:53.867Z,3.30
2018-02-02T03:36:20.169Z,3.30
2018-02-02T03:38:46.443Z,3.20
2018-02-02T03:41:13.470Z,3.30
2018-02-02T03:43:39.759Z,3.20
2018-02-02T03:46:06.048Z,3.30
2018-02-02T03:48:32.340Z,3.30
2018-02-02T03:50:58.613Z,3.30
2018-02-02T03:53:25.661Z,3.30
2018-02-02T03:55:51.968Z,3.20
2018-02-02T03:58:19.008Z,3.20
2018-02-02T04:00:45.285Z,3.20
2018-02-02T04:03:11.588Z,3.30
2018-02-02T04:05:38.621Z,3.20
2018-02-02T04:08:05.657Z,3.30
2018-02-02T04:10:31.938Z,3.20
2018-02-02T04:12:58.226Z,3.30
2018-02-02T04:15:25.285Z,3.20
2018-02-02T04:17:52.329Z,3.20
2018-02-02T04:20:19.356Z,3.20
2018-02-02T04:22:45.652Z,3.20
2018-02-02T04:25:11.945Z,3.30
2018-02-02T04:27:38.302Z,3.30
2018-02-02T04:30:04.597Z,3.20
2018-02-02T04:32:31.629Z,3.20
2018-02-02T04:35:15.764Z,3.20
2018-02-02T04:37:42.094Z,3.30
2018-02-02T04:40:08.392Z,3.30
2018-02-02T04:42:34.723Z,3.20
2018-02-02T04:45:01.053Z,3.30
2018-02-02T04:47:27.355Z,3.30
2018-02-02T04:49:53.645Z,3.20
2018-02-02T04:52:19.928Z,3.30
2018-02-02T04:54:46.234Z,3.30
2018-02-02T04:57:13.272Z,3.40
2018-02-02T04:59:40.305Z,3.40
2018-02-02T05:02:06.588Z,3.30
2018-02-02T05:04:32.938Z,3.30
2018-02-02T05:06:59.196Z,3.30
2018-02-02T05:09:25.491Z,3.30
2018-02-02T05:11:51.792Z,3.40
2018-02-02T05:14:18.091Z,3.30
2018-02-02T05:16:44.367Z,3.30
2018-02-02T05:19:10.681Z,3.30
2018-02-02T05:21:36.948Z,3.40
2018-02-02T05:24:03.229Z,3.40
2018-02-02T05:26:30.244Z,3.40
2018-02-02T05:28:56.558Z,3.30
2018-02-02T05:31:22.844Z,3.40
2018-02-02T05:33:49.134Z,3.40
2018-02-02T05:36:15.415Z,3.40
2018-02-02T05:38:41.696Z,3.40
2018-02-02T05:41:07.997Z,3.50
2018-02-02T05:43:34.257Z,3.30
2018-02-02T05:46:00.559Z,3.30
2018-02-02T05:48:26.848Z,3.40
2018-02-02T05:50:53.881Z,3.40
2018-02-02T05:53:20.887Z,3.40
2018-02-02T05:55:47.189Z,3.40
2018-02-02T05:58:13.444Z,3.50
2018-02-02T06:00:39.764Z,3.50
2018-02-02T06:03:06.049Z,3.50
2018-02-02T06:05:33.090Z,3.50
2018-02-02T06:08:00.097Z,3.50
2018-02-02T06:10:26.397Z,3.40
2018-02-02T06:12:52.657Z,3.50
2018-02-02T06:15:18.943Z,3.40
2018-02-02T06:17:45.245Z,3.40
2018-02-02T06:20:12.288Z,3.40
2018-02-02T06:22:38.578Z,3.40
2018-02-02T06:25:04.873Z,3.50
2018-02-02T06:27:31.901Z,3.40
2018-02-02T06:29:58.927Z,3.40
2018-02-02T06:32:25.240Z,3.40
2018-02-02T06:34:51.536Z,3.30
2018-02-02T06:37:17.820Z,3.30
2018-02-02T06:39:44.112Z,3.30
2018-02-02T06:42:10.441Z,3.20
2018-02-02T06:44:36.713Z,3.20
2018-02-02T06:47:03.028Z,3.20
2018-02-02T06:49:29.306Z,3.20
2018-02-02T06:51:55.602Z,3.30
2018-02-02T06:54:21.884Z,3.20
2018-02-02T06:56:48.177Z,3.10
2018-02-02T06:59:15.189Z,3.20
2018-02-02T07:01:41.698Z,3.20
2018-02-02T07:04:07.986Z,3.20
2018-02-02T07:06:35.052Z,3.40
2018-02-02T07:09:01.343Z,3.30
2018-02-02T07:11:28.400Z,3.20
2018-02-02T07:13:55.462Z,3.20
2018-02-02T07:16:21.788Z,3.20
2018-02-02T07:18:48.825Z,3.20
2018-02-02T07:21:15.881Z,3.30
2018-02-02T07:23:42.203Z,3.20
2018-02-02T07:26:08.496Z,3.30
2018-02-02T07:28:34.787Z,3.30
2018-02-02T07:31:01.801Z,3.40
2018-02-02T07:33:28.117Z,3.30
2018-02-02T07:35:54.400Z,3.40
2018-02-02T07:38:20.696Z,3.40
2018-02-02T07:40:46.982Z,3.40
2018-02-02T07:43:13.248Z,3.40
2018-02-02T07:45:40.280Z,3.50
2018-02-02T07:48:06.588Z,3.40
2018-02-02T07:50:32.905Z,3.50
2018-02-02T07:52:59.233Z,3.60
2018-02-02T07:55:25.548Z,3.50
2018-02-02T07:57:51.835Z,3.50
2018-02-02T08:00:18.169Z,3.60
2018-02-02T08:02:45.208Z,3.80
2018-02-02T08:05:11.518Z,3.80
2018-02-02T08:07:37.813Z,3.80
2018-02-02T08:10:04.094Z,3.80
2018-02-02T08:12:30.363Z,3.80
2018-02-02T08:14:56.667Z,3.90
2018-02-02T08:17:22.959Z,3.80
2018-02-02T08:19:49.248Z,3.90
2018-02-02T08:22:16.273Z,3.90
2018-02-02T08:24:43.325Z,4.00
2018-02-02T08:27:10.355Z,4.00
2018-02-02T08:29:36.643Z,3.90
2018-02-02T08:32:02.928Z,4.00
2018-02-02T08:34:29.977Z,4.10
2018-02-02T08:36:57.009Z,4.20
2018-02-02T08:39:23.329Z,4.10
2018-02-02T08:41:49.602Z,4.20
2018-02-02T08:44:15.885Z,4.20
2018-02-02T08:46:42.208Z,4.20
2018-02-02T08:49:08.490Z,4.20
2018-02-02T08:51:35.524Z,4.30
2018-02-02T08:54:02.569Z,4.20
2018-02-02T08:56:29.624Z,4.20
2018-02-02T08:58:56.675Z,4.10
2018-02-02T09:01:29.919Z,4.20
2018-02-02T09:03:56.225Z,4.10
2018-02-02T09:06:22.857Z,4.20
2018-02-02T09:08:49.146Z,4.30
2018-02-02T09:11:15.443Z,4.30
2018-02-02T09:13:41.727Z,4.30
2018-02-02T09:16:08.879Z,4.40
2018-02-02T09:18:35.165Z,4.40
2018-02-02T09:21:01.450Z,4.40
2018-02-02T09:23:27.732Z,4.40
2018-02-02T09:25:54.042Z,4.50
2018-02-02T09:28:20.366Z,4.40
2018-02-02T09:30:46.651Z,4.50
2018-02-02T09:33:13.696Z,4.30
2018-02-02T09:35:39.991Z,4.30
2018-02-02T09:38:07.776Z,4.40
2018-02-02T09:40:34.075Z,4.40
2018-02-02T09:43:00.475Z,4.50
2018-02-02T09:45:26.744Z,4.50
2018-02-02T09:47:53.042Z,4.40
2018-02-02T09:50:19.309Z,4.40
2018-02-02T09:52:45.600Z,4.50
2018-02-02T09:55:11.863Z,4.50
2018-02-02T09:57:38.213Z,4.50
2018-02-02T10:00:05.270Z,4.40
2018-02-02T10:02:32.332Z,4.50
2018-02-02T10:04:58.622Z,4.40
2018-02-02T10:07:24.918Z,4.50
2018-02-02T10:09:51.197Z,4.40
2018-02-02T10:12:18.243Z,4.40
2018-02-02T10:14:44.526Z,4.40
2018-02-02T10:17:10.792Z,4.40
2018-02-02T10:19:37.887Z,4.50
2018-02-02T10:22:04.152Z,4.50
2018-02-02T10:24:30.417Z,4.50
2018-02-02T10:26:57.448Z,4.50
2018-02-02T10:29:23.732Z,4.50
2018-02-02T10:31:50.008Z,4.60
2018-02-02T10:34:16.306Z,4.60
2018-02-02T10:36:42.592Z,4.60
2018-02-02T10:39:09.689Z,4.70
2018-02-02T10:41:35.999Z,4.70
2018-02-02T10:44:02.295Z,4.70
2018-02-02T10:46:29.325Z,4.70
2018-02-02T10:48:56.363Z,4.60
2018-02-02T10:51:22.668Z,4.60
2018-02-02T10:53:48.962Z,4.60
2018-02-02T10:56:15.246Z,4.70
2018-02-02T10:58:41.531Z,4.80
2018-02-02T11:01:13.942Z,4.70
2018-02-02T11:03:46.393Z,4.80
2018-02-02T11:06:12.684Z,4.90
2018-02-02T11:08:39.781Z,4.80
2018-02-02T11:11:06.114Z,4.70
2018-02-02T11:13:32.374Z,4.70
2018-02-02T11:15:59.449Z,4.80
2018-02-02T11:18:26.459Z,4.80
2018-02-02T11:20:52.765Z,4.80
2018-02-02T11:23:19.025Z,5.00
2018-02-02T11:25:45.308Z,5.00
2018-02-02T11:28:11.715Z,4.90
2018-02-02T11:30:38.728Z,5.00
2018-02-02T11:33:05.022Z,4.90
2018-02-02T11:35:31.316Z,5.00
2018-02-02T11:37:58.381Z,5.00
2018-02-02T11:40:24.688Z,4.90
2018-02-02T11:42:51.717Z,5.00
2018-02-02T11:45:18.032Z,4.90
2018-02-02T11:47:44.342Z,5.00
2018-02-02T11:50:10.625Z,5.10
2018-02-02T11:52:37.660Z,5.30
2018-02-02T11:55:03.975Z,5.20
2018-02-02T11:57:30.309Z,5.30
2018-02-02T11:59:56.596Z,5.30
2018-02-02T12:02:22.899Z,5.50
2018-02-02T12:04:49.226Z,5.40
2018-02-02T12:07:15.520Z,5.40
2018-02-02T12:09:41.821Z,5.50
2018-02-02T12:12:08.125Z,5.50
2018-02-02T12:14:34.412Z,5.40
2018-02-02T12:17:00.750Z,5.40
2018-02-02T12:19:27.797Z,5.30
2018-02-02T12:21:56.984Z,5.30
2018-02-02T12:24:39.125Z,5.30
2018-02-02T12:27:11.656Z,5.40
2018-02-02T12:29:44.212Z,5.30
2018-02-02T12:32:15.444Z,5.20
2018-02-02T12:34:46.627Z,5.20
2018-02-02T12:37:13.688Z,5.20
2018-02-02T12:39:40.730Z,4.90
2018-02-02T12:42:07.785Z,4.80
2018-02-02T12:44:34.825Z,4.90
2018-02-02T12:47:01.120Z,4.80
2018-02-02T12:49:30.256Z,4.90
2018-02-02T12:51:56.592Z,4.80
2018-02-02T12:54:23.618Z,4.90
2018-02-02T12:56:49.917Z,4.80
2018-02-02T12:59:16.215Z,4.90
2018-02-02T13:01:42.519Z,4.90
2018-02-02T13:04:09.550Z,5.00
2018-02-02T13:06:35.844Z,4.90
2018-02-02T13:09:02.220Z,4.90
2018-02-02T13:11:29.272Z,4.90
2018-02-02T13:13:55.590Z,4.90
2018-02-02T13:16:21.884Z,4.90
2018-02-02T13:18:48.192Z,4.80
2018-02-02T13:21:14.488Z,4.80
2018-02-02T13:23:40.797Z,4.70
2018-02-02T13:26:07.088Z,4.70
2018-02-02T13:28:33.405Z,4.70
2018-02-02T13:30:59.692Z,4.80
2018-02-02T13:33:26.005Z,4.80
2018-02-02T13:35:52.325Z,4.70
2018-02-02T13:38:18.954Z,4.70
2018-02-02T13:40:45.245Z,4.70
2018-02-02T13:43:12.269Z,4.70
2018-02-02T13:45:38.553Z,4.70
2018-02-02T13:48:04.933Z,4.80
2018-02-02T13:50:31.243Z,4.80
2018-02-02T13:52:57.526Z,4.90
2018-02-02T13:55:23.809Z,4.70
2018-02-02T13:57:50.102Z,4.70
2018-02-02T14:00:16.397Z,4.80
2018-02-02T14:02:43.431Z,4.70
2018-02-02T14:05:09.747Z,4.70
2018-02-02T14:07:36.096Z,4.70
2018-02-02T14:10:03.195Z,4.70
2018-02-02T14:12:29.489Z,4.60
2018-02-02T14:14:55.804Z,4.70
2018-02-02T14:17:22.091Z,4.70
2018-02-02T14:19:48.433Z,4.60
2018-02-02T14:22:14.720Z,4.60
2018-02-02T14:24:41.038Z,4.60
2018-02-02T14:27:08.064Z,4.70
2018-02-02T14:29:34.344Z,4.70
2018-02-02T14:32:00.644Z,4.70
2018-02-02T14:34:27.679Z,4.50
2018-02-02T14:36:54.707Z,4.50
2018-02-02T14:39:20.992Z,4.40
2018-02-02T14:41:47.271Z,4.60
2018-02-02T14:44:13.579Z,4.70
2018-02-02T14:46:39.862Z,4.60
2018-02-02T14:49:06.879Z,4.40
2018-02-02T14:51:33.156Z,4.40
2018-02-02T14:53:59.441Z,4.50
2018-02-02T14:56:25.716Z,4.30
2018-02-02T14:58:51.994Z,4.40
2018-02-02T15:01:18.576Z,4.40
2018-02-02T15:03:44.854Z,4.30
2018-02-02T15:06:11.160Z,4.30
2018-02-02T15:08:37.429Z,4.30
2018-02-02T15:11:03.714Z,4.40
2018-02-02T15:13:29.988Z,4.30
2018-02-02T15:15:56.285Z,4.20
2018-02-02T15:18:22.590Z,4.30
2018-02-02T15:20:48.876Z,4.30
2018-02-02T15:23:17.050Z,4.40
2018-02-02T15:25:44.074Z,4.30
2018-02-02T15:28:10.362Z,4.20
2018-02-02T15:30:36.664Z,4.20
2018-02-02T15:33:03.697Z,4.30
2018-02-02T15:35:29.990Z,4.30
2018-02-02T15:37:56.280Z,4.30
2018-02-02T15:40:23.334Z,4.20
2018-02-02T15:42:49.634Z,4.10
2018-02-02T15:45:16.692Z,4.20
2018-02-02T15:47:43.742Z,4.20
2018-02-02T15:50:10.796Z,4.20
2018-02-02T15:52:37.840Z,4.20
2018-02-02T15:55:04.907Z,4.20
2018-02-02T15:57:31.233Z,4.20
2018-02-02T15:59:57.529Z,4.20
2018-02-02T16:02:23.815Z,4.20
2018-02-02T16:04:50.088Z,4.30
2018-02-02T16:07:16.389Z,4.20
2018-02-02T16:09:42.691Z,4.30
2018-02-02T16:12:08.997Z,4.20
2018-02-02T16:14:36.024Z,4.10
2018-02-02T16:17:02.332Z,4.10
2018-02-02T16:19:28.593Z,4.10
2018-02-02T16:21:55.632Z,4.00
2018-02-02T16:24:21.913Z,4.00
2018-02-02T16:26:48.205Z,4.00
2018-02-02T16:29:15.235Z,4.10
2018-02-02T16:31:41.539Z,4.00
2018-02-02T16:34:07.823Z,4.10
2018-02-02T16:36:34.859Z,4.10
2018-02-02T16:39:01.923Z,4.00
2018-02-02T16:41:28.240Z,4.00
2018-02-02T16:43:55.293Z,4.00
2018-02-02T16:46:22.394Z,3.90
2018-02-02T16:48:48.701Z,3.90
2018-02-02T16:51:14.994Z,4.00
2018-02-02T16:53:42.035Z,4.10
2018-02-02T16:56:09.090Z,4.00
2018-02-02T16:58:38.066Z,4.00
2018-02-02T17:01:05.121Z,4.10
2018-02-02T17:03:32.169Z,4.00
2018-02-02T17:05:59.233Z,4.00
2018-02-02T17:08:25.568Z,3.90
2018-02-02T17:10:51.892Z,3.90
2018-02-02T17:13:18.212Z,4.10
2018-02-02T17:15:45.249Z,4.00
2018-02-02T17:18:12.309Z,3.90
2018-02-02T17:20:39.320Z,3.90
2018-02-02T17:23:05.626Z,3.90
2018-02-02T17:25:31.904Z,4.00
2018-02-02T17:27:58.941Z,3.70
2018-02-02T17:30:25.230Z,3.70
2018-02-02T17:32:51.517Z,3.60
2018-02-02T17:35:18.537Z,3.70
2018-02-02T17:37:44.828Z,3.60
2018-02-02T17:40:11.115Z,3.80
2018-02-02T17:42:38.148Z,3.70
2018-02-02T17:45:04.437Z,3.60
2018-02-02T17:47:30.725Z,3.80
2018-02-02T17:49:57.043Z,3.60
2018-02-02T17:52:23.312Z,3.50
2018-02-02T17:54:49.620Z,3.40
2018-02-02T17:57:16.656Z,3.40
2018-02-02T17:59:42.952Z,3.30
2018-02-02T18:02:09.244Z,3.30
2018-02-02T18:04:35.573Z,3.20
2018-02-02T18:07:01.872Z,3.30
2018-02-02T18:09:28.324Z,3.20
2018-02-02T18:11:54.605Z,3.20
2018-02-02T18:14:20.905Z,3.20
2018-02-02T18:16:47.207Z,3.20
2018-02-02T18:19:14.264Z,3.30
2018-02-02T18:21:41.289Z,3.30
2018-02-02T18:24:07.590Z,3.30
2018-02-02T18:26:33.856Z,3.40
2018-02-02T18:29:00.897Z,3.50
2018-02-02T18:31:27.920Z,3.60
2018-02-02T18:33:54.233Z,3.60
2018-02-02T18:36:20.511Z,3.60
2018-02-02T18:38:47.572Z,3.50
2018-02-02T18:41:13.858Z,3.50
2018-02-02T18:43:40.131Z,3.60
2018-02-02T18:46:06.447Z,3.60
2018-02-02T18:48:33.482Z,3.50
2018-02-02T18:51:00.558Z,3.70
2018-02-02T18:53:26.862Z,3.70
2018-02-02T18:55:53.910Z,3.60
2018-02-02T18:58:20.954Z,3.70
2018-02-02T19:00:47.266Z,3.70
2018-02-02T19:03:13.620Z,3.80
2018-02-02T19:05:40.693Z,3.90
2018-02-02T19:08:06.999Z,3.80
2018-02-02T19:10:34.048Z,3.90
2018-02-02T19:13:01.067Z,3.90
2018-02-02T19:15:27.361Z,3.90
2018-02-02T19:17:53.644Z,3.90
2018-02-02T19:20:20.700Z,3.80
2018-02-02T19:22:46.995Z,3.70
2018-02-02T19:25:13.293Z,3.80
2018-02-02T19:27:39.611Z,3.90
2018-02-02T19:30:06.154Z,3.90
2018-02-02T19:32:32.464Z,3.80
2018-02-02T19:34:58.780Z,3.80
2018-02-02T19:37:25.118Z,4.00
2018-02-02T19:39:52.215Z,4.00
2018-02-02T19:42:18.566Z,3.90
2018-02-02T19:44:44.891Z,3.90
2018-02-02T19:47:11.193Z,4.00
2018-02-02T19:49:37.541Z,4.10
2018-02-02T19:52:03.944Z,4.00
2018-02-02T19:54:30.243Z,4.00
2018-02-02T19:57:01.113Z,4.10
2018-02-02T19:59:27.450Z,4.00
2018-02-02T20:01:53.743Z,3.90
2018-02-02T20:04:20.040Z,3.90
2018-02-02T20:06:47.157Z,3.70
2018-02-02T20:09:13.481Z,3.70
2018-02-02T20:11:39.772Z,3.70
2018-02-02T20:14:06.987Z,3.70
2018-02-02T20:16:33.330Z,3.60
2018-02-02T20:18:59.694Z,3.60
2018-02-02T20:21:26.009Z,3.60
2018-02-02T20:23:52.336Z,3.70
2018-02-02T20:26:18.691Z,3.70
2018-02-02T20:28:45.037Z,3.70
2018-02-02T20:31:11.426Z,3.80
2018-02-02T20:33:38.600Z,3.60
2018-02-02T20:36:05.700Z,3.70
2018-02-02T20:38:32.048Z,3.60
2018-02-02T20:40:59.111Z,3.70
2018-02-02T20:43:25.509Z,3.70
2018-02-02T20:45:51.812Z,3.70
2018-02-02T20:48:18.148Z,3.90
2018-02-02T20:50:44.471Z,3.90
2018-02-02T20:53:10.777Z,3.70
2018-02-02T20:55:37.822Z,3.80
2018-02-02T20:58:04.930Z,3.70
2018-02-02T21:00:31.236Z,3.70
2018-02-02T21:02:57.550Z,3.80
2018-02-02T21:05:24.819Z,3.80
2018-02-02T21:07:51.171Z,3.80
2018-02-02T21:10:17.464Z,4.00
2018-02-02T21:12:43.796Z,4.00
2018-02-02T21:15:10.106Z,4.00
2018-02-02T21:17:36.416Z,4.10
2018-02-02T21:20:02.805Z,3.90
2018-02-02T21:22:29.103Z,3.80
2018-02-02T21:24:56.138Z,4.20
2018-02-02T21:27:23.181Z,3.90
2018-02-02T21:29:50.213Z,3.70
2018-02-02T21:32:16.530Z,3.70
2018-02-02T21:34:42.874Z,3.80
2018-02-02T21:37:09.177Z,3.80
2018-02-02T21:39:35.550Z,3.80
2018-02-02T21:42:02.615Z,4.00
2018-02-02T21:44:28.959Z,4.00
2018-02-02T21:46:55.408Z,4.00
2018-02-02T21:49:21.702Z,4.00
2018-02-02T21:51:48.750Z,4.00
2018-02-02T21:54:15.770Z,3.80
2018-02-02T21:56:42.128Z,3.80
2018-02-02T21:59:09.183Z,3.60
2018-02-02T22:01:35.524Z,3.60
2018-02-02T22:04:01.918Z,3.50
2018-02-02T22:06:29.031Z,3.60
2018-02-02T22:08:55.333Z,3.60
2018-02-02T22:11:21.615Z,3.70
2018-02-02T22:13:47.923Z,3.80
2018-02-02T22:16:14.306Z,3.90
2018-02-02T22:18:41.327Z,4.10
2018-02-02T22:21:07.607Z,4.10
2018-02-02T22:23:33.945Z,4.20
2018-02-02T22:26:00.241Z,4.10
2018-02-02T22:28:27.280Z,4.10
2018-02-02T22:30:53.614Z,4.00
2018-02-02T22:33:20.640Z,3.90
2018-02-02T22:35:47.024Z,3.90
2018-02-02T22:38:13.327Z,3.90
2018-02-02T22:40:40.361Z,4.00
2018-02-02T22:43:06.681Z,3.90
2018-02-02T22:45:33.017Z,3.90
2018-02-02T22:48:00.076Z,4.00
2018-02-02T22:50:27.100Z,3.90
2018-02-02T22:52:53.393Z,3.90
2018-02-02T22:55:19.744Z,3.80
2018-02-02T22:57:46.024Z,3.90
2018-02-02T23:00:12.320Z,3.80
2018-02-02T23:02:39.353Z,3.70
2018-02-02T23:05:05.658Z,3.70
2018-02-02T23:07:31.979Z,3.70
2018-02-02T23:09:58.259Z,3.80
2018-02-02T23:12:24.534Z,3.80
2018-02-02T23:14:50.817Z,3.70
2018-02-02T23:17:17.880Z,3.60
2018-02-02T23:19:44.895Z,3.70
2018-02-02T23:22:11.183Z,3.70
2018-02-02T23:24:37.444Z,3.70
2018-02-02T23:27:03.741Z,3.80
2018-02-02T23:29:30.021Z,3.60
2018-02-02T23:31:56.299Z,3.80
2018-02-02T23:34:22.574Z,3.70
2018-02-02T23:36:48.896Z,3.60
2018-02-02T23:39:15.179Z,3.70
2018-02-02T23:41:42.218Z,3.70
2018-02-02T23:44:09.238Z,3.70
2018-02-02T23:46:36.277Z,3.80
2018-02-02T23:49:02.559Z,3.80
2018-02-02T23:51:28.862Z,3.80
2018-02-02T23:53:55.878Z,3.70
2018-02-02T23:56:22.167Z,3.60
2018-02-02T23:58:48.447Z,3.70
